createdAt,value
2019-02-24T00:00:45.797Z,44.95
2019-02-24T00:01:45.752Z,44.95
2019-02-24T00:02:45.745Z,44.95
2019-02-24T00:03:45.735Z,44.95
2019-02-24T00:04:45.727Z,44.95
2019-02-24T00:05:45.717Z,44.95
2019-02-24T00:06:45.736Z,44.85
2019-02-24T00:07:45.693Z,44.85
2019-02-24T00:08:45.682Z,44.85
2019-02-24T00:09:45.668Z,44.85
2019-02-24T00:10:45.656Z,44.85
2019-02-24T00:11:45.658Z,44.85
2019-02-24T00:12:45.673Z,44.85
2019-02-24T00:13:45.627Z,44.85
2019-02-24T00:14:45.618Z,44.95
2019-02-24T00:15:45.603Z,44.85
2019-02-24T00:16:45.593Z,44.85
2019-02-24T00:17:45.586Z,44.95
2019-02-24T00:18:45.596Z,44.85
2019-02-24T00:19:45.563Z,44.85
2019-02-24T00:20:45.551Z,44.85
2019-02-24T00:21:45.546Z,44.85
2019-02-24T00:22:45.531Z,44.85
2019-02-24T00:23:45.516Z,44.85
2019-02-24T00:24:45.539Z,44.85
2019-02-24T00:25:45.497Z,44.85
2019-02-24T00:26:45.490Z,44.85
2019-02-24T00:27:45.472Z,44.85
2019-02-24T00:28:45.467Z,44.85
2019-02-24T00:29:45.456Z,44.85
2019-02-24T00:30:45.467Z,44.85
2019-02-24T00:31:45.436Z,44.85
2019-02-24T00:32:45.428Z,44.85
2019-02-24T00:33:45.407Z,44.85
2019-02-24T00:34:45.402Z,44.85
2019-02-24T00:35:45.392Z,44.85
2019-02-24T00:36:45.411Z,44.85
2019-02-24T00:37:45.366Z,44.85
2019-02-24T00:38:45.365Z,44.75
2019-02-24T00:39:45.346Z,44.75
2019-02-24T00:40:45.338Z,44.75
2019-02-24T00:41:45.327Z,44.75
2019-02-24T00:42:45.342Z,44.75
2019-02-24T00:43:45.305Z,44.75
2019-02-24T00:44:45.293Z,44.75
2019-02-24T00:45:45.286Z,44.75
2019-02-24T00:46:45.269Z,44.75
2019-02-24T00:47:45.271Z,44.75
2019-02-24T00:48:45.295Z,44.75
2019-02-24T00:49:45.239Z,44.75
2019-02-24T00:50:45.227Z,44.75
2019-02-24T00:51:45.221Z,44.75
2019-02-24T00:52:45.216Z,44.75
2019-02-24T00:53:45.195Z,44.75
2019-02-24T00:54:45.220Z,44.75
2019-02-24T00:55:45.175Z,44.75
2019-02-24T00:56:45.169Z,44.75
2019-02-24T00:57:45.156Z,44.65
2019-02-24T00:58:45.139Z,44.65
2019-02-24T00:59:45.129Z,44.65
2019-02-24T01:00:45.194Z,44.65
2019-02-24T01:01:45.114Z,44.65
2019-02-24T01:02:45.105Z,44.65
2019-02-24T01:03:45.089Z,44.65
2019-02-24T01:04:45.080Z,44.65
2019-02-24T01:05:45.063Z,44.65
2019-02-24T01:06:45.084Z,44.65
2019-02-24T01:07:45.049Z,44.65
2019-02-24T01:08:45.035Z,44.65
2019-02-24T01:09:45.026Z,44.65
2019-02-24T01:10:45.010Z,44.65
2019-02-24T01:11:45.004Z,44.65
2019-02-24T01:12:45.012Z,44.65
2019-02-24T01:13:44.975Z,44.65
2019-02-24T01:14:44.973Z,44.65
2019-02-24T01:15:44.994Z,44.65
2019-02-24T01:16:44.948Z,44.65
2019-02-24T01:17:44.931Z,44.65
2019-02-24T01:18:44.927Z,44.65
2019-02-24T01:19:44.919Z,44.65
2019-02-24T01:20:44.907Z,44.65
2019-02-24T01:21:44.912Z,44.65
2019-02-24T01:22:44.886Z,44.65
2019-02-24T01:23:44.884Z,44.65
2019-02-24T01:24:44.858Z,44.65
2019-02-24T01:25:44.868Z,44.65
2019-02-24T01:26:44.837Z,44.65
2019-02-24T01:27:44.828Z,44.65
2019-02-24T01:28:44.816Z,44.65
2019-02-24T01:29:44.823Z,44.65
2019-02-24T01:30:44.793Z,44.65
2019-02-24T01:31:44.782Z,44.65
2019-02-24T01:32:44.773Z,44.65
2019-02-24T01:33:44.759Z,44.65
2019-02-24T01:34:44.753Z,44.55
2019-02-24T01:35:44.760Z,44.55
2019-02-24T01:36:44.723Z,44.55
2019-02-24T01:37:44.712Z,44.55
2019-02-24T01:38:44.711Z,44.55
2019-02-24T01:39:44.812Z,44.55
2019-02-24T01:40:44.687Z,44.55
2019-02-24T01:41:44.671Z,44.55
2019-02-24T01:42:44.678Z,44.55
2019-02-24T01:43:44.652Z,44.55
2019-02-24T01:44:44.641Z,44.55
2019-02-24T01:45:44.649Z,44.55
2019-02-24T01:46:44.616Z,44.55
2019-02-24T01:47:44.611Z,44.55
2019-02-24T01:48:44.601Z,44.55
2019-02-24T01:49:44.590Z,44.55
2019-02-24T01:50:44.605Z,44.55
2019-02-24T01:51:44.577Z,44.55
2019-02-24T01:52:44.562Z,44.55
2019-02-24T01:53:44.548Z,44.55
2019-02-24T01:54:44.560Z,44.55
2019-02-24T01:55:44.524Z,44.55
2019-02-24T01:56:44.516Z,44.55
2019-02-24T01:57:44.500Z,44.55
2019-02-24T01:58:44.485Z,44.55
2019-02-24T01:59:44.475Z,44.55
2019-02-24T02:00:44.494Z,44.45
2019-02-24T02:01:44.457Z,44.45
2019-02-24T02:02:44.445Z,44.45
2019-02-24T02:03:44.437Z,44.45
2019-02-24T02:04:44.452Z,44.45
2019-02-24T02:05:44.419Z,44.35
2019-02-24T02:06:44.398Z,44.45
2019-02-24T02:07:44.390Z,44.35
2019-02-24T02:08:44.384Z,44.35
2019-02-24T02:09:44.373Z,44.35
2019-02-24T02:10:44.403Z,44.24
2019-02-24T02:11:44.346Z,44.24
2019-02-24T02:12:44.335Z,44.15
2019-02-24T02:13:44.326Z,44.15
2019-02-24T02:14:44.317Z,44.04
2019-02-24T02:15:44.321Z,44.04
2019-02-24T02:16:44.299Z,44.04
2019-02-24T02:17:44.279Z,44.04
2019-02-24T02:18:44.279Z,44.04
2019-02-24T02:19:44.282Z,44.04
2019-02-24T02:20:44.245Z,44.04
2019-02-24T02:21:44.239Z,44.04
2019-02-24T02:22:44.279Z,44.04
2019-02-24T02:23:44.215Z,44.04
2019-02-24T02:24:44.208Z,44.04
2019-02-24T02:25:44.195Z,44.04
2019-02-24T02:26:44.183Z,44.15
2019-02-24T02:27:44.173Z,44.15
2019-02-24T02:28:44.340Z,44.15
2019-02-24T02:29:44.149Z,44.15
2019-02-24T02:30:44.197Z,44.15
2019-02-24T02:31:44.132Z,44.15
2019-02-24T02:32:44.125Z,44.15
2019-02-24T02:33:44.111Z,44.15
2019-02-24T02:34:44.107Z,44.15
2019-02-24T02:35:44.086Z,44.15
2019-02-24T02:36:44.107Z,44.15
2019-02-24T02:37:44.068Z,44.15
2019-02-24T02:38:44.062Z,44.15
2019-02-24T02:39:44.049Z,44.15
2019-02-24T02:40:44.036Z,44.15
2019-02-24T02:41:44.065Z,44.15
2019-02-24T02:42:44.013Z,44.15
2019-02-24T02:43:44.008Z,44.15
2019-02-24T02:44:43.991Z,44.15
2019-02-24T02:45:43.994Z,44.15
2019-02-24T02:46:43.972Z,44.15
2019-02-24T02:47:44.192Z,44.15
2019-02-24T02:48:43.948Z,44.15
2019-02-24T02:49:43.935Z,44.15
2019-02-24T02:50:43.925Z,44.15
2019-02-24T02:51:43.913Z,44.15
2019-02-24T02:52:43.911Z,44.15
2019-02-24T02:53:43.937Z,44.15
2019-02-24T02:54:43.882Z,44.15
2019-02-24T02:55:43.871Z,44.15
2019-02-24T02:56:43.868Z,44.15
2019-02-24T02:57:43.854Z,44.15
2019-02-24T02:58:53.659Z,44.15
2019-02-24T02:59:44.870Z,44.15
2019-02-24T03:00:43.822Z,44.15
2019-02-24T03:01:43.812Z,44.15
2019-02-24T03:02:43.815Z,44.15
2019-02-24T03:03:43.823Z,44.15
2019-02-24T03:04:43.784Z,44.15
2019-02-24T03:05:43.774Z,44.15
2019-02-24T03:06:43.752Z,44.15
2019-02-24T03:07:43.752Z,44.15
2019-02-24T03:08:43.777Z,44.15
2019-02-24T03:09:43.722Z,44.15
2019-02-24T03:10:43.714Z,44.15
2019-02-24T03:11:43.697Z,44.15
2019-02-24T03:12:43.697Z,44.15
2019-02-24T03:13:43.681Z,44.15
2019-02-24T03:14:43.701Z,44.15
2019-02-24T03:15:43.654Z,44.15
2019-02-24T03:16:43.644Z,44.15
2019-02-24T03:17:43.657Z,44.15
2019-02-24T03:18:43.624Z,44.15
2019-02-24T03:19:43.643Z,44.15
2019-02-24T03:20:43.599Z,44.15
2019-02-24T03:21:43.589Z,44.15
2019-02-24T03:22:43.579Z,44.15
2019-02-24T03:23:43.569Z,44.15
2019-02-24T03:24:43.596Z,44.15
2019-02-24T03:25:43.591Z,44.15
2019-02-24T03:26:43.535Z,44.15
2019-02-24T03:27:43.522Z,44.15
2019-02-24T03:28:43.515Z,44.15
2019-02-24T03:29:43.531Z,44.15
2019-02-24T03:30:43.492Z,44.15
2019-02-24T03:31:43.756Z,44.15
2019-02-24T03:32:43.475Z,44.15
2019-02-24T03:33:44.946Z,44.15
2019-02-24T03:34:43.453Z,44.15
2019-02-24T03:35:43.442Z,44.17
2019-02-24T03:36:43.431Z,44.15
2019-02-24T03:37:43.448Z,44.15
2019-02-24T03:38:43.409Z,44.15
2019-02-24T03:39:43.401Z,44.15
2019-02-24T03:40:43.384Z,44.15
2019-02-24T03:41:43.373Z,44.15
2019-02-24T03:42:43.405Z,44.15
2019-02-24T03:43:43.353Z,44.17
2019-02-24T03:44:43.346Z,44.15
2019-02-24T03:45:43.336Z,44.15
2019-02-24T03:46:43.320Z,44.15
2019-02-24T03:47:43.306Z,44.15
2019-02-24T03:48:43.323Z,44.15
2019-02-24T03:49:43.293Z,44.15
2019-02-24T03:50:43.299Z,44.15
2019-02-24T03:51:43.271Z,44.15
2019-02-24T03:52:43.254Z,44.15
2019-02-24T03:53:43.250Z,44.15
2019-02-24T03:54:43.231Z,44.15
2019-02-24T03:55:43.250Z,44.15
2019-02-24T03:56:43.213Z,44.15
2019-02-24T03:57:43.200Z,44.15
2019-02-24T03:58:43.194Z,44.15
2019-02-24T03:59:43.181Z,44.15
2019-02-24T04:00:43.211Z,44.15
2019-02-24T04:01:43.160Z,44.15
2019-02-24T04:02:43.146Z,44.15
2019-02-24T04:03:43.139Z,44.17
2019-02-24T04:04:43.127Z,44.15
2019-02-24T04:05:43.116Z,44.17
2019-02-24T04:06:43.139Z,44.17
2019-02-24T04:07:43.096Z,44.15
2019-02-24T04:08:43.094Z,44.15
2019-02-24T04:09:43.074Z,44.15
2019-02-24T04:10:43.062Z,44.15
2019-02-24T04:11:43.051Z,44.17
2019-02-24T04:12:43.071Z,44.15
2019-02-24T04:13:43.033Z,44.17
2019-02-24T04:14:43.042Z,44.15
2019-02-24T04:15:43.011Z,44.17
2019-02-24T04:16:43.000Z,44.15
2019-02-24T04:17:43.016Z,44.17
2019-02-24T04:18:42.980Z,44.17
2019-02-24T04:19:42.973Z,44.17
2019-02-24T04:20:42.956Z,44.15
2019-02-24T04:21:42.974Z,44.17
2019-02-24T04:22:42.964Z,44.17
2019-02-24T04:23:42.918Z,44.17
2019-02-24T04:24:42.914Z,44.17
2019-02-24T04:25:42.902Z,44.17
2019-02-24T04:26:42.895Z,44.17
2019-02-24T04:27:42.876Z,44.17
2019-02-24T04:28:42.900Z,44.17
2019-02-24T04:29:42.860Z,44.17
2019-02-24T04:30:42.864Z,44.17
2019-02-24T04:31:42.835Z,44.17
2019-02-24T04:32:42.830Z,44.17
2019-02-24T04:33:42.818Z,44.17
2019-02-24T04:34:42.838Z,44.17
2019-02-24T04:35:42.794Z,44.17
2019-02-24T04:36:42.785Z,44.17
2019-02-24T04:37:42.775Z,44.17
2019-02-24T04:38:42.759Z,44.17
2019-02-24T04:39:42.791Z,44.17
2019-02-24T04:40:42.744Z,44.17
2019-02-24T04:41:42.728Z,44.17
2019-02-24T04:42:42.717Z,44.17
2019-02-24T04:43:42.707Z,44.17
2019-02-24T04:44:42.721Z,44.17
2019-02-24T04:45:42.686Z,44.17
2019-02-24T04:46:42.678Z,44.17
2019-02-24T04:47:42.673Z,44.17
2019-02-24T04:48:42.650Z,44.17
2019-02-24T04:49:42.673Z,44.17
2019-02-24T04:50:42.629Z,44.17
2019-02-24T04:51:42.624Z,44.17
2019-02-24T04:52:42.615Z,44.17
2019-02-24T04:53:42.598Z,44.17
2019-02-24T04:54:42.834Z,44.17
2019-02-24T04:55:42.574Z,44.17
2019-02-24T04:56:42.569Z,44.17
2019-02-24T04:57:42.553Z,44.17
2019-02-24T04:58:42.545Z,44.17
2019-02-24T04:59:42.536Z,44.17
2019-02-24T05:00:42.559Z,44.17
2019-02-24T05:01:42.514Z,44.17
2019-02-24T05:02:42.504Z,44.07
2019-02-24T05:03:42.522Z,44.17
2019-02-24T05:04:42.481Z,44.17
2019-02-24T05:05:42.506Z,44.07
2019-02-24T05:06:42.463Z,44.07
2019-02-24T05:07:42.452Z,44.07
2019-02-24T05:08:42.440Z,44.07
2019-02-24T05:09:42.429Z,44.07
2019-02-24T05:10:42.412Z,44.17
2019-02-24T05:11:42.430Z,44.17
2019-02-24T05:12:42.389Z,44.07
2019-02-24T05:13:42.384Z,44.07
2019-02-24T05:14:42.427Z,44.17
2019-02-24T05:15:42.366Z,44.17
2019-02-24T05:16:42.348Z,44.17
2019-02-24T05:17:42.342Z,44.17
2019-02-24T05:18:42.382Z,44.17
2019-02-24T05:19:42.316Z,44.17
2019-02-24T05:20:42.303Z,44.07
2019-02-24T05:21:42.292Z,44.07
2019-02-24T05:22:42.285Z,44.07
2019-02-24T05:23:43.071Z,44.17
2019-02-24T05:24:42.290Z,44.17
2019-02-24T05:25:42.337Z,44.17
2019-02-24T05:26:42.242Z,44.17
2019-02-24T05:27:42.230Z,44.17
2019-02-24T05:28:42.221Z,44.17
2019-02-24T05:29:46.003Z,44.17
2019-02-24T05:30:42.202Z,44.17
2019-02-24T05:31:42.230Z,44.17
2019-02-24T05:32:42.182Z,44.17
2019-02-24T05:33:42.168Z,44.17
2019-02-24T05:34:42.158Z,44.17
2019-02-24T05:35:42.150Z,44.17
2019-02-24T05:36:42.140Z,44.17
2019-02-24T05:37:42.163Z,44.17
2019-02-24T05:38:42.112Z,44.17
2019-02-24T05:39:42.102Z,44.17
2019-02-24T05:40:42.094Z,44.17
2019-02-24T05:41:42.084Z,44.17
2019-02-24T05:42:42.633Z,44.17
2019-02-24T05:43:42.332Z,44.17
2019-02-24T05:44:42.055Z,44.17
2019-02-24T05:45:42.038Z,44.17
2019-02-24T05:46:42.024Z,44.17
2019-02-24T05:47:42.012Z,44.07
2019-02-24T05:48:42.006Z,44.17
2019-02-24T05:49:42.040Z,44.17
2019-02-24T05:50:41.995Z,44.17
2019-02-24T05:51:41.971Z,44.17
2019-02-24T05:52:41.958Z,44.07
2019-02-24T05:53:41.950Z,44.07
2019-02-24T05:54:41.940Z,44.07
2019-02-24T05:55:41.959Z,44.07
2019-02-24T05:56:41.918Z,44.07
2019-02-24T05:57:41.904Z,44.07
2019-02-24T05:58:41.919Z,44.17
2019-02-24T05:59:41.889Z,44.17
2019-02-24T06:00:41.904Z,44.07
2019-02-24T06:01:41.907Z,44.17
2019-02-24T06:02:41.849Z,44.17
2019-02-24T06:03:41.847Z,44.17
2019-02-24T06:04:41.829Z,44.17
2019-02-24T06:05:41.824Z,44.17
2019-02-24T06:06:41.813Z,44.17
2019-02-24T06:07:41.848Z,44.17
2019-02-24T06:08:41.791Z,44.07
2019-02-24T06:09:41.778Z,44.17
2019-02-24T06:10:41.769Z,44.17
2019-02-24T06:11:41.753Z,44.17
2019-02-24T06:12:41.743Z,44.17
2019-02-24T06:13:41.763Z,44.17
2019-02-24T06:14:41.735Z,44.07
2019-02-24T06:15:41.715Z,44.17
2019-02-24T06:16:41.699Z,44.17
2019-02-24T06:17:41.691Z,44.17
2019-02-24T06:18:41.827Z,44.07
2019-02-24T06:19:41.668Z,44.17
2019-02-24T06:20:41.661Z,44.07
2019-02-24T06:21:41.646Z,44.17
2019-02-24T06:22:41.667Z,44.07
2019-02-24T06:23:41.626Z,44.07
2019-02-24T06:24:41.642Z,44.07
2019-02-24T06:25:41.606Z,44.07
2019-02-24T06:26:41.594Z,44.07
2019-02-24T06:27:41.586Z,44.07
2019-02-24T06:28:41.599Z,44.07
2019-02-24T06:29:41.588Z,44.07
2019-02-24T06:30:41.552Z,44.07
2019-02-24T06:31:41.538Z,44.07
2019-02-24T06:32:41.526Z,44.07
2019-02-24T06:33:41.513Z,44.07
2019-02-24T06:34:41.529Z,44.07
2019-02-24T06:35:41.494Z,44.07
2019-02-24T06:36:41.482Z,44.07
2019-02-24T06:37:41.477Z,44.07
2019-02-24T06:38:41.461Z,44.07
2019-02-24T06:39:41.478Z,44.07
2019-02-24T06:40:41.465Z,44.07
2019-02-24T06:41:41.433Z,44.07
2019-02-24T06:42:41.423Z,43.96
2019-02-24T06:43:41.410Z,43.96
2019-02-24T06:44:41.747Z,43.96
2019-02-24T06:45:41.388Z,43.96
2019-02-24T06:46:41.379Z,43.96
2019-02-24T06:47:41.363Z,43.96
2019-02-24T06:48:41.360Z,43.96
2019-02-24T06:49:41.349Z,43.96
2019-02-24T06:50:41.364Z,43.96
2019-02-24T06:51:41.320Z,43.96
2019-02-24T06:52:41.323Z,43.96
2019-02-24T06:53:41.305Z,43.96
2019-02-24T06:54:41.289Z,43.96
2019-02-24T06:55:41.328Z,43.96
2019-02-24T06:56:41.272Z,43.96
2019-02-24T06:57:41.258Z,43.96
2019-02-24T06:58:41.259Z,43.96
2019-02-24T06:59:41.238Z,43.96
2019-02-24T07:00:41.225Z,43.96
2019-02-24T07:01:41.253Z,43.96
2019-02-24T07:02:41.203Z,43.96
2019-02-24T07:03:41.197Z,43.96
2019-02-24T07:04:41.181Z,43.87
2019-02-24T07:05:41.173Z,43.87
2019-02-24T07:06:41.165Z,43.87
2019-02-24T07:07:41.327Z,43.87
2019-02-24T07:08:41.144Z,43.87
2019-02-24T07:09:41.133Z,43.87
2019-02-24T07:10:41.115Z,43.87
2019-02-24T07:11:41.112Z,43.87
2019-02-24T07:12:41.127Z,43.87
2019-02-24T07:13:41.131Z,43.87
2019-02-24T07:14:41.076Z,43.87
2019-02-24T07:15:41.066Z,43.87
2019-02-24T07:16:41.053Z,43.96
2019-02-24T07:17:41.044Z,43.96
2019-02-24T07:18:41.036Z,43.87
2019-02-24T07:19:41.051Z,43.87
2019-02-24T07:20:41.041Z,43.87
2019-02-24T07:21:41.003Z,43.87
2019-02-24T07:22:40.989Z,43.87
2019-02-24T07:23:40.982Z,43.87
2019-02-24T07:24:41.186Z,43.87
2019-02-24T07:25:40.957Z,43.84
2019-02-24T07:26:40.958Z,43.87
2019-02-24T07:27:40.939Z,43.87
2019-02-24T07:28:40.931Z,43.87
2019-02-24T07:29:40.919Z,43.87
2019-02-24T07:30:40.956Z,43.84
2019-02-24T07:31:40.896Z,43.87
2019-02-24T07:32:40.881Z,43.95
2019-02-24T07:33:40.875Z,43.87
2019-02-24T07:34:40.862Z,43.96
2019-02-24T07:35:40.849Z,43.87
2019-02-24T07:36:40.868Z,43.87
2019-02-24T07:37:40.830Z,43.84
2019-02-24T07:38:40.820Z,43.84
2019-02-24T07:39:40.809Z,43.84
2019-02-24T07:40:40.795Z,43.84
2019-02-24T07:41:40.870Z,43.84
2019-02-24T07:42:40.831Z,43.84
2019-02-24T07:43:40.763Z,43.84
2019-02-24T07:44:40.755Z,43.87
2019-02-24T07:45:40.747Z,43.84
2019-02-24T07:46:40.731Z,43.84
2019-02-24T07:47:40.827Z,43.84
2019-02-24T07:48:40.708Z,43.84
2019-02-24T07:49:40.701Z,43.84
2019-02-24T07:50:40.685Z,43.84
2019-02-24T07:51:40.672Z,43.84
2019-02-24T07:52:40.709Z,43.84
2019-02-24T07:53:40.658Z,43.84
2019-02-24T07:54:40.644Z,43.84
2019-02-24T07:55:40.636Z,43.84
2019-02-24T07:56:40.626Z,43.84
2019-02-24T07:57:40.611Z,43.84
2019-02-24T07:58:40.651Z,43.84
2019-02-24T07:59:40.592Z,43.84
2019-02-24T08:00:40.579Z,43.84
2019-02-24T08:01:42.470Z,43.84
2019-02-24T08:02:40.558Z,43.84
2019-02-24T08:03:40.548Z,43.74
2019-02-24T08:04:40.582Z,43.74
2019-02-24T08:05:40.529Z,43.74
2019-02-24T08:06:40.518Z,43.74
2019-02-24T08:07:40.500Z,43.74
2019-02-24T08:08:40.491Z,43.74
2019-02-24T08:09:40.482Z,43.74
2019-02-24T08:10:40.523Z,43.74
2019-02-24T08:11:40.458Z,43.74
2019-02-24T08:12:40.452Z,43.74
2019-02-24T08:13:40.441Z,43.74
2019-02-24T08:14:40.427Z,43.74
2019-02-24T08:15:40.422Z,43.74
2019-02-24T08:16:40.438Z,43.74
2019-02-24T08:17:40.402Z,43.74
2019-02-24T08:18:49.062Z,43.74
2019-02-24T08:19:41.381Z,43.74
2019-02-24T08:20:40.373Z,43.64
2019-02-24T08:21:40.386Z,43.64
2019-02-24T08:22:40.574Z,43.64
2019-02-24T08:23:40.331Z,43.64
2019-02-24T08:24:40.323Z,43.64
2019-02-24T08:25:40.312Z,43.64
2019-02-24T08:26:40.302Z,43.74
2019-02-24T08:27:40.292Z,43.64
2019-02-24T08:28:40.323Z,43.64
2019-02-24T08:29:40.266Z,43.64
2019-02-24T08:30:41.829Z,43.64
2019-02-24T08:31:40.246Z,43.64
2019-02-24T08:32:40.232Z,43.64
2019-02-24T08:33:40.221Z,43.64
2019-02-24T08:34:40.260Z,43.64
2019-02-24T08:35:40.206Z,43.64
2019-02-24T08:36:40.189Z,43.64
2019-02-24T08:37:40.179Z,43.64
2019-02-24T08:38:40.492Z,43.64
2019-02-24T08:39:40.163Z,43.64
2019-02-24T08:40:40.202Z,43.64
2019-02-24T08:41:40.141Z,43.64
2019-02-24T08:42:40.126Z,43.64
2019-02-24T08:43:40.114Z,43.64
2019-02-24T08:44:40.113Z,43.64
2019-02-24T08:45:40.100Z,43.64
2019-02-24T08:46:40.112Z,43.64
2019-02-24T08:47:40.079Z,43.54
2019-02-24T08:48:40.067Z,43.64
2019-02-24T08:49:40.057Z,43.54
2019-02-24T08:50:40.041Z,43.64
2019-02-24T08:51:40.062Z,43.54
2019-02-24T08:52:40.026Z,43.54
2019-02-24T08:53:40.022Z,43.64
2019-02-24T08:54:40.001Z,43.54
2019-02-24T08:55:39.990Z,43.54
2019-02-24T08:56:39.982Z,43.54
2019-02-24T08:57:40.184Z,43.64
2019-02-24T08:58:39.960Z,43.64
2019-02-24T08:59:39.945Z,43.54
2019-02-24T09:00:39.932Z,43.54
2019-02-24T09:01:39.929Z,43.54
2019-02-24T09:02:39.917Z,43.54
2019-02-24T09:03:39.956Z,43.54
2019-02-24T09:04:39.888Z,43.54
2019-02-24T09:05:39.885Z,43.54
2019-02-24T09:06:39.914Z,43.54
2019-02-24T09:07:39.864Z,43.54
2019-02-24T09:08:39.854Z,43.54
2019-02-24T09:09:40.077Z,43.54
2019-02-24T09:10:39.834Z,43.54
2019-02-24T09:11:39.818Z,43.54
2019-02-24T09:12:39.804Z,43.64
2019-02-24T09:13:39.799Z,43.54
2019-02-24T09:14:39.790Z,43.54
2019-02-24T09:15:39.820Z,43.54
2019-02-24T09:16:39.766Z,43.54
2019-02-24T09:17:39.748Z,43.54
2019-02-24T09:18:39.746Z,43.54
2019-02-24T09:19:39.729Z,43.54
2019-02-24T09:20:39.722Z,43.54
2019-02-24T09:21:39.940Z,43.54
2019-02-24T09:22:39.705Z,43.54
2019-02-24T09:23:39.693Z,43.54
2019-02-24T09:24:39.678Z,43.54
2019-02-24T09:25:39.667Z,43.54
2019-02-24T09:26:39.660Z,43.54
2019-02-24T09:27:39.850Z,43.54
2019-02-24T09:28:39.633Z,43.54
2019-02-24T09:29:39.628Z,43.54
2019-02-24T09:30:41.620Z,43.54
2019-02-24T09:31:39.604Z,43.54
2019-02-24T09:32:39.599Z,43.54
2019-02-24T09:33:39.606Z,43.54
2019-02-24T09:34:39.575Z,43.54
2019-02-24T09:35:39.563Z,43.54
2019-02-24T09:36:39.551Z,43.54
2019-02-24T09:37:39.538Z,43.54
2019-02-24T09:38:39.567Z,43.54
2019-02-24T09:39:39.523Z,43.54
2019-02-24T09:40:39.508Z,43.54
2019-02-24T09:41:39.500Z,43.54
2019-02-24T09:42:39.481Z,43.54
2019-02-24T09:43:39.482Z,43.54
2019-02-24T09:44:39.496Z,43.54
2019-02-24T09:45:39.465Z,43.54
2019-02-24T09:46:39.445Z,43.54
2019-02-24T09:47:46.297Z,43.54
2019-02-24T09:48:40.416Z,43.54
2019-02-24T09:49:39.443Z,43.54
2019-02-24T09:50:39.439Z,43.54
2019-02-24T09:51:39.388Z,43.54
2019-02-24T09:52:39.393Z,43.54
2019-02-24T09:53:39.366Z,43.54
2019-02-24T09:54:39.380Z,43.54
2019-02-24T09:55:39.354Z,43.54
2019-02-24T09:56:39.364Z,43.54
2019-02-24T09:57:39.337Z,43.64
2019-02-24T09:58:39.312Z,43.64
2019-02-24T09:59:39.344Z,43.64
2019-02-24T10:00:39.290Z,43.64
2019-02-24T10:01:39.277Z,43.64
2019-02-24T10:02:39.273Z,43.64
2019-02-24T10:03:39.258Z,43.64
2019-02-24T10:04:39.250Z,43.64
2019-02-24T10:05:39.261Z,43.64
2019-02-24T10:06:39.223Z,43.64
2019-02-24T10:07:39.213Z,43.64
2019-02-24T10:08:39.351Z,43.64
2019-02-24T10:09:39.193Z,43.64
2019-02-24T10:10:39.188Z,43.64
2019-02-24T10:11:39.178Z,43.64
2019-02-24T10:12:39.166Z,43.64
2019-02-24T10:13:39.154Z,43.64
2019-02-24T10:14:39.165Z,43.64
2019-02-24T10:15:39.133Z,43.64
2019-02-24T10:16:39.122Z,43.64
2019-02-24T10:17:39.104Z,43.64
2019-02-24T10:18:39.093Z,43.64
2019-02-24T10:19:39.116Z,43.64
2019-02-24T10:20:39.083Z,43.64
2019-02-24T10:21:39.071Z,43.64
2019-02-24T10:22:39.051Z,43.64
2019-02-24T10:23:39.042Z,43.64
2019-02-24T10:24:39.056Z,43.74
2019-02-24T10:25:39.021Z,43.74
2019-02-24T10:26:39.012Z,43.74
2019-02-24T10:27:38.995Z,43.64
2019-02-24T10:28:39.031Z,43.64
2019-02-24T10:29:38.974Z,43.64
2019-02-24T10:30:38.969Z,43.74
2019-02-24T10:31:38.956Z,43.74
2019-02-24T10:32:38.977Z,43.74
2019-02-24T10:33:38.933Z,43.74
2019-02-24T10:34:38.955Z,43.74
2019-02-24T10:35:38.922Z,43.74
2019-02-24T10:36:38.897Z,43.74
2019-02-24T10:37:38.894Z,43.74
2019-02-24T10:38:38.881Z,43.74
2019-02-24T10:39:38.904Z,43.74
2019-02-24T10:40:38.868Z,43.74
2019-02-24T10:41:38.852Z,43.74
2019-02-24T10:42:38.834Z,43.74
2019-02-24T10:43:38.823Z,43.74
2019-02-24T10:44:38.841Z,43.76
2019-02-24T10:45:38.812Z,43.74
2019-02-24T10:46:38.797Z,43.87
2019-02-24T10:47:38.786Z,43.76
2019-02-24T10:48:38.803Z,43.84
2019-02-24T10:49:38.760Z,43.87
2019-02-24T10:50:38.791Z,43.84
2019-02-24T10:51:38.748Z,43.87
2019-02-24T10:52:38.729Z,43.87
2019-02-24T10:53:38.718Z,43.87
2019-02-24T10:54:38.713Z,43.87
2019-02-24T10:55:38.700Z,43.87
2019-02-24T10:56:38.732Z,43.87
2019-02-24T10:57:38.683Z,43.87
2019-02-24T10:58:38.676Z,43.87
2019-02-24T10:59:38.662Z,43.87
2019-02-24T11:00:38.643Z,43.87
2019-02-24T11:01:38.640Z,43.87
2019-02-24T11:02:38.658Z,43.87
2019-02-24T11:03:38.615Z,43.87
2019-02-24T11:04:38.599Z,43.87
2019-02-24T11:05:38.591Z,43.87
2019-02-24T11:06:38.581Z,43.87
2019-02-24T11:07:38.572Z,43.96
2019-02-24T11:08:38.588Z,43.96
2019-02-24T11:09:38.549Z,43.96
2019-02-24T11:10:38.540Z,43.96
2019-02-24T11:11:38.528Z,43.96
2019-02-24T11:12:38.518Z,43.96
2019-02-24T11:13:38.508Z,43.96
2019-02-24T11:14:38.520Z,43.96
2019-02-24T11:15:38.489Z,43.96
2019-02-24T11:16:38.478Z,43.96
2019-02-24T11:17:38.467Z,43.96
2019-02-24T11:18:38.455Z,43.96
2019-02-24T11:19:38.500Z,43.96
2019-02-24T11:20:38.436Z,43.96
2019-02-24T11:21:38.426Z,43.96
2019-02-24T11:22:38.413Z,43.96
2019-02-24T11:23:38.398Z,44.07
2019-02-24T11:24:38.398Z,44.07
2019-02-24T11:25:38.677Z,44.07
2019-02-24T11:26:38.370Z,44.07
2019-02-24T11:27:38.360Z,44.07
2019-02-24T11:28:38.351Z,44.07
2019-02-24T11:29:38.335Z,44.07
2019-02-24T11:30:38.324Z,44.07
2019-02-24T11:31:38.719Z,44.07
2019-02-24T11:32:38.308Z,44.07
2019-02-24T11:33:38.295Z,44.07
2019-02-24T11:34:38.281Z,44.17
2019-02-24T11:35:38.271Z,44.17
2019-02-24T11:36:38.260Z,44.07
2019-02-24T11:37:38.284Z,44.17
2019-02-24T11:38:38.263Z,44.17
2019-02-24T11:39:38.230Z,44.17
2019-02-24T11:40:38.249Z,44.17
2019-02-24T11:41:38.211Z,44.17
2019-02-24T11:42:38.197Z,44.17
2019-02-24T11:43:38.189Z,44.17
2019-02-24T11:44:38.177Z,44.17
2019-02-24T11:45:38.169Z,44.17
2019-02-24T11:46:38.341Z,44.17
2019-02-24T11:47:38.145Z,44.17
2019-02-24T11:48:38.136Z,44.17
2019-02-24T11:49:38.122Z,44.17
2019-02-24T11:50:38.361Z,44.17
2019-02-24T11:51:38.100Z,44.17
2019-02-24T11:52:38.090Z,44.17
2019-02-24T11:53:38.081Z,44.17
2019-02-24T11:54:38.072Z,44.17
2019-02-24T11:55:38.060Z,44.17
2019-02-24T11:56:38.081Z,44.17
2019-02-24T11:57:38.259Z,44.27
2019-02-24T11:58:38.025Z,44.27
2019-02-24T11:59:38.018Z,44.27
2019-02-24T12:00:38.006Z,44.27
2019-02-24T12:01:47.062Z,44.27
2019-02-24T12:02:39.028Z,44.17
2019-02-24T12:03:37.972Z,44.27
2019-02-24T12:04:37.960Z,44.17
2019-02-24T12:05:37.951Z,44.27
2019-02-24T12:06:37.938Z,44.27
2019-02-24T12:07:37.934Z,44.27
2019-02-24T12:08:37.964Z,44.27
2019-02-24T12:09:37.907Z,44.27
2019-02-24T12:10:37.902Z,44.27
2019-02-24T12:11:37.883Z,44.27
2019-02-24T12:12:37.879Z,44.27
2019-02-24T12:13:37.866Z,44.27
2019-02-24T12:14:37.882Z,44.27
2019-02-24T12:15:37.842Z,44.17
2019-02-24T12:16:37.857Z,44.27
2019-02-24T12:17:37.821Z,44.27
2019-02-24T12:18:37.817Z,44.27
2019-02-24T12:19:37.802Z,44.27
2019-02-24T12:20:37.792Z,44.27
2019-02-24T12:21:37.778Z,44.17
2019-02-24T12:22:37.796Z,44.27
2019-02-24T12:23:37.755Z,44.27
2019-02-24T12:24:37.744Z,44.27
2019-02-24T12:25:37.739Z,44.27
2019-02-24T12:26:37.727Z,44.27
2019-02-24T12:27:37.887Z,44.27
2019-02-24T12:28:37.702Z,44.27
2019-02-24T12:29:37.695Z,44.27
2019-02-24T12:30:37.689Z,44.27
2019-02-24T12:31:37.673Z,44.27
2019-02-24T12:32:37.676Z,44.27
2019-02-24T12:33:37.689Z,44.27
2019-02-24T12:34:37.643Z,44.27
2019-02-24T12:35:37.634Z,44.27
2019-02-24T12:36:37.622Z,44.27
2019-02-24T12:37:37.607Z,44.27
2019-02-24T12:38:37.598Z,44.27
2019-02-24T12:39:37.613Z,44.27
2019-02-24T12:40:37.579Z,44.37
2019-02-24T12:41:37.568Z,44.27
2019-02-24T12:42:37.551Z,44.27
2019-02-24T12:43:37.588Z,44.37
2019-02-24T12:44:37.574Z,44.27
2019-02-24T12:45:37.524Z,44.37
2019-02-24T12:46:37.513Z,44.37
2019-02-24T12:47:37.503Z,44.27
2019-02-24T12:48:37.491Z,44.37
2019-02-24T12:49:37.479Z,44.37
2019-02-24T12:50:37.504Z,44.37
2019-02-24T12:51:37.460Z,44.37
2019-02-24T12:52:37.447Z,44.37